sensor_id;sensor_type;location;lat;lon;timestamp;pressure;altitude;pressure_sealevel;temperature;humidity
78741;BME280;68062;48.726;9.370;2023-06-22T00:02:04;98716.81;;;20.86;95.81
78741;BME280;68062;48.726;9.370;2023-06-22T00:04:31;98711.91;;;20.78;96.31
78741;BME280;68062;48.726;9.370;2023-06-22T00:06:59;98719.44;;;20.86;95.08
78741;BME280;68062;48.726;9.370;2023-06-22T00:09:26;98708.69;;;20.92;95.10
78741;BME280;68062;48.726;9.370;2023-06-22T00:11:52;98708.97;;;20.86;95.93
78741;BME280;68062;48.726;9.370;2023-06-22T00:14:19;98709.63;;;20.91;96.50
78741;BME280;68062;48.726;9.370;2023-06-22T00:16:45;98704.06;;;20.78;96.57
78741;BME280;68062;48.726;9.370;2023-06-22T00:19:14;98701.41;;;20.99;95.15
78741;BME280;68062;48.726;9.370;2023-06-22T00:21:41;98701.50;;;20.97;95.10
78741;BME280;68062;48.726;9.370;2023-06-22T00:24:09;98668.97;;;20.44;97.76
78741;BME280;68062;48.726;9.370;2023-06-22T00:26:36;98715.91;;;20.66;99.26
78741;BME280;68062;48.726;9.370;2023-06-22T00:29:04;98713.38;;;20.44;100.00
78741;BME280;68062;48.726;9.370;2023-06-22T00:31:30;98724.97;;;20.37;100.00
78741;BME280;68062;48.726;9.370;2023-06-22T00:33:57;98720.09;;;20.29;100.00
78741;BME280;68062;48.726;9.370;2023-06-22T00:36:25;98715.44;;;20.15;100.00
78741;BME280;68062;48.726;9.370;2023-06-22T00:38:52;98713.22;;;20.06;100.00
78741;BME280;68062;48.726;9.370;2023-06-22T00:41:20;98718.31;;;20.09;100.00
78741;BME280;68062;48.726;9.370;2023-06-22T00:43:47;98716.34;;;19.93;100.00
78741;BME280;68062;48.726;9.370;2023-06-22T00:46:13;98715.66;;;19.88;100.00
78741;BME280;68062;48.726;9.370;2023-06-22T00:48:42;98703.41;;;20.33;100.00
78741;BME280;68062;48.726;9.370;2023-06-22T00:51:10;98683.22;;;20.37;100.00
78741;BME280;68062;48.726;9.370;2023-06-22T00:53:38;98698.88;;;20.37;100.00
78741;BME280;68062;48.726;9.370;2023-06-22T00:56:06;98691.38;;;20.08;100.00
78741;BME280;68062;48.726;9.370;2023-06-22T00:58:36;98695.56;;;20.12;100.00
78741;BME280;68062;48.726;9.370;2023-06-22T01:01:06;98705.53;;;20.03;100.00
78741;BME280;68062;48.726;9.370;2023-06-22T01:03:33;98712.78;;;19.96;100.00
78741;BME280;68062;48.726;9.370;2023-06-22T01:06:07;98694.31;;;19.78;100.00
78741;BME280;68062;48.726;9.370;2023-06-22T01:08:42;98709.84;;;20.04;100.00
78741;BME280;68062;48.726;9.370;2023-06-22T01:11:16;98739.13;;;19.88;100.00
78741;BME280;68062;48.726;9.370;2023-06-22T01:13:52;98734.69;;;19.92;100.00
78741;BME280;68062;48.726;9.370;2023-06-22T01:16:28;98732.81;;;20.16;100.00
78741;BME280;68062;48.726;9.370;2023-06-22T01:18:58;98740.91;;;19.88;100.00
78741;BME280;68062;48.726;9.370;2023-06-22T01:21:29;98759.31;;;19.62;100.00
78741;BME280;68062;48.726;9.370;2023-06-22T01:24:08;98765.59;;;19.56;100.00
78741;BME280;68062;48.726;9.370;2023-06-22T01:26:42;98751.38;;;19.65;100.00
78741;BME280;68062;48.726;9.370;2023-06-22T01:29:15;98734.97;;;20.06;100.00
78741;BME280;68062;48.726;9.370;2023-06-22T01:31:45;98728.19;;;20.02;100.00
78741;BME280;68062;48.726;9.370;2023-06-22T01:34:14;98732.25;;;19.87;100.00
78741;BME280;68062;48.726;9.370;2023-06-22T01:36:43;98734.72;;;19.90;100.00
78741;BME280;68062;48.726;9.370;2023-06-22T01:39:10;98729.66;;;20.08;100.00
78741;BME280;68062;48.726;9.370;2023-06-22T01:41:38;98737.47;;;20.09;100.00
78741;BME280;68062;48.726;9.370;2023-06-22T01:44:07;98740.25;;;19.82;100.00
78741;BME280;68062;48.726;9.370;2023-06-22T01:46:36;98732.00;;;19.49;100.00
78741;BME280;68062;48.726;9.370;2023-06-22T01:49:04;98721.44;;;19.74;100.00
78741;BME280;68062;48.726;9.370;2023-06-22T01:51:31;98707.72;;;19.91;100.00
78741;BME280;68062;48.726;9.370;2023-06-22T01:53:59;98667.47;;;19.54;100.00
78741;BME280;68062;48.726;9.370;2023-06-22T01:56:26;98685.72;;;19.32;100.00
78741;BME280;68062;48.726;9.370;2023-06-22T01:58:59;98724.97;;;19.51;100.00
78741;BME280;68062;48.726;9.370;2023-06-22T02:01:31;98735.31;;;19.30;100.00
78741;BME280;68062;48.726;9.370;2023-06-22T02:04:06;98691.13;;;18.79;100.00
78741;BME280;68062;48.726;9.370;2023-06-22T02:06:37;98730.81;;;18.86;100.00
78741;BME280;68062;48.726;9.370;2023-06-22T02:09:08;98736.88;;;18.87;100.00
78741;BME280;68062;48.726;9.370;2023-06-22T02:11:37;98741.41;;;18.81;100.00
78741;BME280;68062;48.726;9.370;2023-06-22T02:14:07;98738.09;;;19.02;100.00
78741;BME280;68062;48.726;9.370;2023-06-22T02:16:35;98732.84;;;19.27;100.00
78741;BME280;68062;48.726;9.370;2023-06-22T02:19:04;98721.63;;;19.47;100.00
78741;BME280;68062;48.726;9.370;2023-06-22T02:21:33;98731.69;;;19.34;100.00
78741;BME280;68062;48.726;9.370;2023-06-22T02:23:59;98705.78;;;18.82;100.00
78741;BME280;68062;48.726;9.370;2023-06-22T02:26:30;98748.16;;;18.87;100.00
78741;BME280;68062;48.726;9.370;2023-06-22T02:28:57;98736.56;;;18.71;100.00
78741;BME280;68062;48.726;9.370;2023-06-22T02:31:24;98731.38;;;18.94;100.00
78741;BME280;68062;48.726;9.370;2023-06-22T02:33:57;98729.56;;;18.73;100.00
78741;BME280;68062;48.726;9.370;2023-06-22T02:36:26;98742.91;;;18.63;100.00
78741;BME280;68062;48.726;9.370;2023-06-22T02:38:56;98739.38;;;18.90;100.00
78741;BME280;68062;48.726;9.370;2023-06-22T02:41:24;98736.59;;;19.20;100.00
78741;BME280;68062;48.726;9.370;2023-06-22T02:43:50;98738.97;;;19.26;100.00
78741;BME280;68062;48.726;9.370;2023-06-22T02:46:18;98707.00;;;19.21;100.00
78741;BME280;68062;48.726;9.370;2023-06-22T02:48:45;98717.44;;;18.95;100.00
78741;BME280;68062;48.726;9.370;2023-06-22T02:51:12;98732.38;;;18.66;100.00
78741;BME280;68062;48.726;9.370;2023-06-22T02:53:41;98731.44;;;18.69;100.00
78741;BME280;68062;48.726;9.370;2023-06-22T02:56:11;98720.31;;;19.13;100.00
78741;BME280;68062;48.726;9.370;2023-06-22T02:58:38;98705.84;;;19.28;100.00
78741;BME280;68062;48.726;9.370;2023-06-22T03:01:08;98692.97;;;19.01;100.00
78741;BME280;68062;48.726;9.370;2023-06-22T03:03:36;98706.06;;;18.74;100.00
78741;BME280;68062;48.726;9.370;2023-06-22T03:06:03;98705.66;;;18.61;100.00
78741;BME280;68062;48.726;9.370;2023-06-22T03:08:30;98704.41;;;18.48;100.00
78741;BME280;68062;48.726;9.370;2023-06-22T03:10:58;98699.50;;;18.64;100.00
78741;BME280;68062;48.726;9.370;2023-06-22T03:13:24;98688.47;;;19.05;100.00
78741;BME280;68062;48.726;9.370;2023-06-22T03:15:51;98685.53;;;19.14;100.00
78741;BME280;68062;48.726;9.370;2023-06-22T03:18:18;98692.97;;;19.01;100.00
78741;BME280;68062;48.726;9.370;2023-06-22T03:20:44;98695.53;;;18.77;100.00
78741;BME280;68062;48.726;9.370;2023-06-22T03:23:11;98700.69;;;18.55;100.00
78741;BME280;68062;48.726;9.370;2023-06-22T03:25:37;98695.13;;;18.41;100.00
78741;BME280;68062;48.726;9.370;2023-06-22T03:28:06;98691.00;;;18.59;100.00
78741;BME280;68062;48.726;9.370;2023-06-22T03:30:33;98693.72;;;18.56;100.00
78741;BME280;68062;48.726;9.370;2023-06-22T03:33:00;98690.84;;;18.38;100.00
78741;BME280;68062;48.726;9.370;2023-06-22T03:35:26;98696.84;;;18.40;100.00
78741;BME280;68062;48.726;9.370;2023-06-22T03:37:54;98698.19;;;18.27;100.00
78741;BME280;68062;48.726;9.370;2023-06-22T03:40:21;98698.56;;;18.16;100.00
78741;BME280;68062;48.726;9.370;2023-06-22T03:42:48;98699.41;;;18.16;100.00
78741;BME280;68062;48.726;9.370;2023-06-22T03:45:16;98701.66;;;18.27;100.00
78741;BME280;68062;48.726;9.370;2023-06-22T03:47:42;98700.69;;;18.30;100.00
78741;BME280;68062;48.726;9.370;2023-06-22T03:50:09;98706.63;;;18.59;100.00
78741;BME280;68062;48.726;9.370;2023-06-22T03:52:36;98703.03;;;18.61;100.00
78741;BME280;68062;48.726;9.370;2023-06-22T03:55:04;98708.88;;;18.44;100.00
78741;BME280;68062;48.726;9.370;2023-06-22T03:57:30;98711.09;;;18.55;100.00
78741;BME280;68062;48.726;9.370;2023-06-22T03:59:57;98704.75;;;18.62;100.00
78741;BME280;68062;48.726;9.370;2023-06-22T04:02:26;98700.31;;;18.90;100.00
78741;BME280;68062;48.726;9.370;2023-06-22T04:04:53;98697.50;;;18.94;100.00
78741;BME280;68062;48.726;9.370;2023-06-22T04:07:19;98697.16;;;19.05;100.00
78741;BME280;68062;48.726;9.370;2023-06-22T04:09:46;98700.22;;;18.91;100.00
78741;BME280;68062;48.726;9.370;2023-06-22T04:12:13;98699.28;;;18.94;100.00
78741;BME280;68062;48.726;9.370;2023-06-22T04:14:40;98696.06;;;19.11;100.00
78741;BME280;68062;48.726;9.370;2023-06-22T04:17:06;98690.03;;;19.33;100.00
78741;BME280;68062;48.726;9.370;2023-06-22T04:19:35;98672.53;;;19.36;100.00
78741;BME280;68062;48.726;9.370;2023-06-22T04:22:02;98676.59;;;19.44;100.00
78741;BME280;68062;48.726;9.370;2023-06-22T04:24:28;98674.03;;;19.42;100.00
78741;BME280;68062;48.726;9.370;2023-06-22T04:26:55;98671.19;;;19.26;100.00
78741;BME280;68062;48.726;9.370;2023-06-22T04:29:22;98669.47;;;19.25;100.00
78741;BME280;68062;48.726;9.370;2023-06-22T04:31:55;98642.75;;;19.20;100.00
78741;BME280;68062;48.726;9.370;2023-06-22T04:34:24;98658.56;;;19.37;100.00
78741;BME280;68062;48.726;9.370;2023-06-22T04:36:54;98666.56;;;19.33;100.00
78741;BME280;68062;48.726;9.370;2023-06-22T04:39:20;98664.88;;;19.32;100.00
78741;BME280;68062;48.726;9.370;2023-06-22T04:41:47;98664.47;;;19.43;100.00
78741;BME280;68062;48.726;9.370;2023-06-22T04:44:16;98666.44;;;19.36;100.00
78741;BME280;68062;48.726;9.370;2023-06-22T04:46:49;98655.66;;;19.45;100.00
78741;BME280;68062;48.726;9.370;2023-06-22T04:49:19;98653.81;;;19.69;100.00
78741;BME280;68062;48.726;9.370;2023-06-22T04:51:46;98646.19;;;19.85;100.00
78741;BME280;68062;48.726;9.370;2023-06-22T04:54:14;98622.91;;;19.81;100.00
78741;BME280;68062;48.726;9.370;2023-06-22T04:56:41;98630.69;;;20.03;100.00
78741;BME280;68062;48.726;9.370;2023-06-22T04:59:08;98636.69;;;20.26;100.00
78741;BME280;68062;48.726;9.370;2023-06-22T05:01:38;98637.34;;;20.31;100.00
78741;BME280;68062;48.726;9.370;2023-06-22T05:04:05;98632.63;;;20.39;100.00
78741;BME280;68062;48.726;9.370;2023-06-22T05:06:32;98637.50;;;20.47;100.00
78741;BME280;68062;48.726;9.370;2023-06-22T05:08:58;98630.19;;;20.75;98.69
78741;BME280;68062;48.726;9.370;2023-06-22T05:11:27;98619.75;;;20.94;96.43
78741;BME280;68062;48.726;9.370;2023-06-22T05:13:54;98622.50;;;20.91;96.06
78741;BME280;68062;48.726;9.370;2023-06-22T05:16:22;98622.22;;;20.97;95.06
78741;BME280;68062;48.726;9.370;2023-06-22T05:18:51;98616.31;;;21.30;91.98
78741;BME280;68062;48.726;9.370;2023-06-22T05:21:22;98612.22;;;21.42;90.09
78741;BME280;68062;48.726;9.370;2023-06-22T05:23:49;98612.41;;;21.56;88.85
78741;BME280;68062;48.726;9.370;2023-06-22T05:26:16;98607.25;;;21.55;88.85
78741;BME280;68062;48.726;9.370;2023-06-22T05:28:45;98600.28;;;21.73;87.96
78741;BME280;68062;48.726;9.370;2023-06-22T05:31:12;98606.53;;;21.88;87.18
78741;BME280;68062;48.726;9.370;2023-06-22T05:33:39;98606.53;;;21.88;87.93
78741;BME280;68062;48.726;9.370;2023-06-22T05:36:06;98600.72;;;21.99;85.35
78741;BME280;68062;48.726;9.370;2023-06-22T05:38:33;98596.69;;;22.09;85.41
78741;BME280;68062;48.726;9.370;2023-06-22T05:41:00;98598.94;;;22.17;84.17
78741;BME280;68062;48.726;9.370;2023-06-22T05:43:26;98602.50;;;22.32;82.92
78741;BME280;68062;48.726;9.370;2023-06-22T05:45:55;98597.53;;;22.43;83.08
78741;BME280;68062;48.726;9.370;2023-06-22T05:48:21;98569.06;;;22.37;81.96
78741;BME280;68062;48.726;9.370;2023-06-22T05:50:48;98595.16;;;22.72;80.47
78741;BME280;68062;48.726;9.370;2023-06-22T05:53:14;98592.59;;;23.03;79.25
78741;BME280;68062;48.726;9.370;2023-06-22T05:55:41;98591.06;;;23.31;77.46
78741;BME280;68062;48.726;9.370;2023-06-22T05:58:08;98595.63;;;23.43;76.34
78741;BME280;68062;48.726;9.370;2023-06-22T06:00:35;98596.47;;;23.44;76.47
78741;BME280;68062;48.726;9.370;2023-06-22T06:03:04;98594.69;;;23.44;78.01
78741;BME280;68062;48.726;9.370;2023-06-22T06:05:31;98590.81;;;23.66;76.13
78741;BME280;68062;48.726;9.370;2023-06-22T06:07:57;98582.56;;;23.72;74.64
78741;BME280;68062;48.726;9.370;2023-06-22T06:10:24;98584.59;;;24.12;73.46
78741;BME280;68062;48.726;9.370;2023-06-22T06:12:51;98573.53;;;24.36;72.44
78741;BME280;68062;48.726;9.370;2023-06-22T06:15:18;98583.22;;;24.21;72.26
78741;BME280;68062;48.726;9.370;2023-06-22T06:17:46;98581.03;;;24.28;73.59
78741;BME280;68062;48.726;9.370;2023-06-22T06:20:15;98579.16;;;24.59;71.21
78741;BME280;68062;48.726;9.370;2023-06-22T06:22:41;98579.91;;;24.75;70.24
78741;BME280;68062;48.726;9.370;2023-06-22T06:25:09;98578.38;;;25.13;68.73
78741;BME280;68062;48.726;9.370;2023-06-22T06:27:42;98574.56;;;25.04;67.05
78741;BME280;68062;48.726;9.370;2023-06-22T06:30:10;98583.75;;;24.84;67.33
78741;BME280;68062;48.726;9.370;2023-06-22T06:32:37;98589.28;;;24.50;68.10
78741;BME280;68062;48.726;9.370;2023-06-22T06:35:06;98575.69;;;24.73;66.96
78741;BME280;68062;48.726;9.370;2023-06-22T06:37:35;98558.97;;;24.74;66.71
78741;BME280;68062;48.726;9.370;2023-06-22T06:40:03;98577.00;;;24.80;67.31
78741;BME280;68062;48.726;9.370;2023-06-22T06:42:32;98566.88;;;25.01;65.78
78741;BME280;68062;48.726;9.370;2023-06-22T06:44:59;98568.50;;;25.17;65.02
78741;BME280;68062;48.726;9.370;2023-06-22T06:47:25;98574.94;;;25.25;64.81
78741;BME280;68062;48.726;9.370;2023-06-22T06:49:52;98539.44;;;25.18;64.67
78741;BME280;68062;48.726;9.370;2023-06-22T06:52:18;98581.38;;;25.34;65.35
78741;BME280;68062;48.726;9.370;2023-06-22T06:54:47;98577.47;;;25.80;63.94
78741;BME280;68062;48.726;9.370;2023-06-22T06:57:14;98564.00;;;25.98;62.92
78741;BME280;68062;48.726;9.370;2023-06-22T06:59:41;98538.19;;;26.03;62.41
78741;BME280;68062;48.726;9.370;2023-06-22T07:02:08;98577.72;;;26.29;62.22
78741;BME280;68062;48.726;9.370;2023-06-22T07:04:34;98571.91;;;26.11;61.21
78741;BME280;68062;48.726;9.370;2023-06-22T07:07:02;98578.47;;;26.18;61.67
78741;BME280;68062;48.726;9.370;2023-06-22T07:09:29;98570.53;;;26.44;60.52
78741;BME280;68062;48.726;9.370;2023-06-22T07:11:57;98534.75;;;26.53;60.18
78741;BME280;68062;48.726;9.370;2023-06-22T07:14:23;98561.47;;;27.10;58.40
78741;BME280;68062;48.726;9.370;2023-06-22T07:16:50;98559.72;;;26.97;58.97
78741;BME280;68062;48.726;9.370;2023-06-22T07:19:24;98567.28;;;26.65;58.55
78741;BME280;68062;48.726;9.370;2023-06-22T07:21:51;98526.22;;;27.11;58.02
78741;BME280;68062;48.726;9.370;2023-06-22T07:24:18;98557.63;;;27.97;56.13
78741;BME280;68062;48.726;9.370;2023-06-22T07:26:46;98546.84;;;28.23;54.62
78741;BME280;68062;48.726;9.370;2023-06-22T07:29:14;98538.81;;;28.91;53.22
78741;BME280;68062;48.726;9.370;2023-06-22T07:31:41;98540.72;;;29.75;50.50
78741;BME280;68062;48.726;9.370;2023-06-22T07:34:08;98534.97;;;29.70;50.94
78741;BME280;68062;48.726;9.370;2023-06-22T07:36:34;98528.78;;;30.12;48.92
78741;BME280;68062;48.726;9.370;2023-06-22T07:39:02;98515.69;;;31.10;46.97
78741;BME280;68062;48.726;9.370;2023-06-22T07:41:29;98500.44;;;30.13;48.93
78741;BME280;68062;48.726;9.370;2023-06-22T07:43:56;98511.16;;;30.42;48.81
78741;BME280;68062;48.726;9.370;2023-06-22T07:46:24;98502.47;;;31.20;46.03
78741;BME280;68062;48.726;9.370;2023-06-22T07:48:51;98498.94;;;31.10;46.62
78741;BME280;68062;48.726;9.370;2023-06-22T07:51:17;98492.25;;;30.86;47.48
78741;BME280;68062;48.726;9.370;2023-06-22T07:53:44;98484.16;;;30.27;47.64
78741;BME280;68062;48.726;9.370;2023-06-22T07:56:12;98480.50;;;30.98;46.92
78741;BME280;68062;48.726;9.370;2023-06-22T07:58:38;98474.19;;;31.09;47.31
78741;BME280;68062;48.726;9.370;2023-06-22T08:01:05;98470.13;;;31.05;45.33
78741;BME280;68062;48.726;9.370;2023-06-22T08:03:33;98465.81;;;31.34;46.51
78741;BME280;68062;48.726;9.370;2023-06-22T08:06:00;98470.44;;;30.73;46.17
78741;BME280;68062;48.726;9.370;2023-06-22T08:08:26;98464.72;;;30.87;45.93
78741;BME280;68062;48.726;9.370;2023-06-22T08:10:54;98463.59;;;30.90;45.51
78741;BME280;68062;48.726;9.370;2023-06-22T08:13:20;98461.50;;;31.80;44.47
78741;BME280;68062;48.726;9.370;2023-06-22T08:15:47;98455.84;;;31.93;43.75
78741;BME280;68062;48.726;9.370;2023-06-22T08:18:15;98464.31;;;32.07;43.23
78741;BME280;68062;48.726;9.370;2023-06-22T08:20:43;98455.59;;;32.61;42.38
78741;BME280;68062;48.726;9.370;2023-06-22T08:23:10;98469.31;;;31.82;43.75
78741;BME280;68062;48.726;9.370;2023-06-22T08:25:37;98468.81;;;32.52;41.98
78741;BME280;68062;48.726;9.370;2023-06-22T08:28:04;98474.66;;;32.28;42.06
78741;BME280;68062;48.726;9.370;2023-06-22T08:30:31;98487.06;;;30.85;44.46
78741;BME280;68062;48.726;9.370;2023-06-22T08:32:58;98494.31;;;30.63;45.44
78741;BME280;68062;48.726;9.370;2023-06-22T08:35:25;98499.19;;;32.22;42.81
78741;BME280;68062;48.726;9.370;2023-06-22T08:37:53;98500.41;;;32.37;42.84
78741;BME280;68062;48.726;9.370;2023-06-22T08:40:20;98506.78;;;33.35;41.08
78741;BME280;68062;48.726;9.370;2023-06-22T08:42:48;98512.56;;;34.36;39.28
78741;BME280;68062;48.726;9.370;2023-06-22T08:45:15;98522.03;;;35.48;37.31
78741;BME280;68062;48.726;9.370;2023-06-22T08:47:42;98522.06;;;36.44;35.73
78741;BME280;68062;48.726;9.370;2023-06-22T08:50:10;98539.41;;;35.52;36.75
78741;BME280;68062;48.726;9.370;2023-06-22T08:52:39;98535.41;;;35.23;36.85
78741;BME280;68062;48.726;9.370;2023-06-22T08:55:09;98535.50;;;33.59;40.00
78741;BME280;68062;48.726;9.370;2023-06-22T08:57:36;98540.25;;;34.00;39.66
78741;BME280;68062;48.726;9.370;2023-06-22T09:00:05;98547.03;;;34.89;38.57
78741;BME280;68062;48.726;9.370;2023-06-22T09:02:41;98528.69;;;36.65;35.68
78741;BME280;68062;48.726;9.370;2023-06-22T09:05:08;98528.06;;;36.78;35.87
78741;BME280;68062;48.726;9.370;2023-06-22T09:07:35;98517.16;;;36.25;35.91
78741;BME280;68062;48.726;9.370;2023-06-22T09:10:02;98501.66;;;35.22;37.26
78741;BME280;68062;48.726;9.370;2023-06-22T09:12:33;98509.00;;;35.36;36.54
78741;BME280;68062;48.726;9.370;2023-06-22T09:15:00;98502.81;;;34.78;38.45
78741;BME280;68062;48.726;9.370;2023-06-22T09:17:27;98501.00;;;35.12;38.25
78741;BME280;68062;48.726;9.370;2023-06-22T09:19:54;98502.06;;;33.73;40.25
78741;BME280;68062;48.726;9.370;2023-06-22T09:22:21;98501.47;;;34.74;39.54
78741;BME280;68062;48.726;9.370;2023-06-22T09:24:48;98494.31;;;35.97;37.14
78741;BME280;68062;48.726;9.370;2023-06-22T09:27:15;98497.97;;;34.90;38.77
78741;BME280;68062;48.726;9.370;2023-06-22T09:29:43;98500.16;;;33.92;40.81
78741;BME280;68062;48.726;9.370;2023-06-22T09:32:10;98509.59;;;34.47;40.10
78741;BME280;68062;48.726;9.370;2023-06-22T09:34:37;98502.50;;;34.89;39.76
78741;BME280;68062;48.726;9.370;2023-06-22T09:37:05;98491.81;;;35.39;39.10
78741;BME280;68062;48.726;9.370;2023-06-22T09:39:31;98495.66;;;35.03;39.21
78741;BME280;68062;48.726;9.370;2023-06-22T09:41:59;98501.28;;;34.84;39.87
78741;BME280;68062;48.726;9.370;2023-06-22T09:44:26;98500.97;;;34.95;39.15
78741;BME280;68062;48.726;9.370;2023-06-22T09:46:54;98502.47;;;34.81;39.43
78741;BME280;68062;48.726;9.370;2023-06-22T09:49:21;98491.22;;;33.22;41.51
78741;BME280;68062;48.726;9.370;2023-06-22T09:51:48;98493.03;;;33.93;41.82
78741;BME280;68062;48.726;9.370;2023-06-22T09:54:15;98474.41;;;33.40;42.04
78741;BME280;68062;48.726;9.370;2023-06-22T09:56:42;98465.66;;;33.56;41.69
78741;BME280;68062;48.726;9.370;2023-06-22T09:59:08;98482.41;;;34.01;41.22
78741;BME280;68062;48.726;9.370;2023-06-22T10:01:35;98483.50;;;33.90;41.03
78741;BME280;68062;48.726;9.370;2023-06-22T10:04:03;98475.34;;;34.34;40.71
78741;BME280;68062;48.726;9.370;2023-06-22T10:06:30;98484.09;;;34.53;40.04
78741;BME280;68062;48.726;9.370;2023-06-22T10:08:57;98466.78;;;35.07;39.25
78741;BME280;68062;48.726;9.370;2023-06-22T10:11:24;98466.19;;;34.37;40.45
78741;BME280;68062;48.726;9.370;2023-06-22T10:13:54;98465.03;;;33.62;40.88
78741;BME280;68062;48.726;9.370;2023-06-22T10:16:23;98468.00;;;33.59;41.62
78741;BME280;68062;48.726;9.370;2023-06-22T10:18:52;98455.13;;;33.81;40.66
78741;BME280;68062;48.726;9.370;2023-06-22T10:21:20;98453.97;;;33.83;41.60
78741;BME280;68062;48.726;9.370;2023-06-22T10:23:47;98448.75;;;33.73;42.75
78741;BME280;68062;48.726;9.370;2023-06-22T10:26:14;98450.09;;;33.43;42.58
78741;BME280;68062;48.726;9.370;2023-06-22T10:28:40;98438.97;;;33.82;41.58
78741;BME280;68062;48.726;9.370;2023-06-22T10:31:07;98433.13;;;34.13;40.71
78741;BME280;68062;48.726;9.370;2023-06-22T10:33:34;98413.97;;;35.42;39.01
78741;BME280;68062;48.726;9.370;2023-06-22T10:36:01;98428.59;;;36.11;37.04
78741;BME280;68062;48.726;9.370;2023-06-22T10:38:29;98419.50;;;36.44;36.83
78741;BME280;68062;48.726;9.370;2023-06-22T10:40:55;98415.56;;;36.08;36.99
78741;BME280;68062;48.726;9.370;2023-06-22T10:43:23;98413.06;;;35.98;37.45
78741;BME280;68062;48.726;9.370;2023-06-22T10:45:49;98414.50;;;35.13;39.00
78741;BME280;68062;48.726;9.370;2023-06-22T10:48:16;98409.88;;;35.71;38.08
78741;BME280;68062;48.726;9.370;2023-06-22T10:50:43;98370.91;;;36.08;36.98
78741;BME280;68062;48.726;9.370;2023-06-22T10:53:10;98399.06;;;36.51;36.80
78741;BME280;68062;48.726;9.370;2023-06-22T10:55:38;98367.34;;;35.45;38.01
78741;BME280;68062;48.726;9.370;2023-06-22T10:58:04;98402.34;;;34.94;39.95
78741;BME280;68062;48.726;9.370;2023-06-22T11:00:31;98392.69;;;35.01;39.30
78741;BME280;68062;48.726;9.370;2023-06-22T11:02:58;98393.50;;;34.52;40.67
78741;BME280;68062;48.726;9.370;2023-06-22T11:05:24;98391.00;;;35.00;39.82
78741;BME280;68062;48.726;9.370;2023-06-22T11:07:51;98403.91;;;34.12;41.20
78741;BME280;68062;48.726;9.370;2023-06-22T11:10:18;98397.34;;;34.49;39.86
78741;BME280;68062;48.726;9.370;2023-06-22T11:12:47;98397.00;;;34.60;39.38
78741;BME280;68062;48.726;9.370;2023-06-22T11:15:13;98389.00;;;34.60;40.24
78741;BME280;68062;48.726;9.370;2023-06-22T11:17:40;98397.00;;;34.77;39.42
78741;BME280;68062;48.726;9.370;2023-06-22T11:20:07;98392.34;;;34.71;40.23
78741;BME280;68062;48.726;9.370;2023-06-22T11:22:37;98390.66;;;34.70;39.78
78741;BME280;68062;48.726;9.370;2023-06-22T11:25:05;98402.16;;;35.03;39.60
78741;BME280;68062;48.726;9.370;2023-06-22T11:27:32;98390.25;;;35.39;39.29
78741;BME280;68062;48.726;9.370;2023-06-22T11:30:00;98409.34;;;35.19;38.99
78741;BME280;68062;48.726;9.370;2023-06-22T11:32:28;98376.31;;;35.04;38.33
78741;BME280;68062;48.726;9.370;2023-06-22T11:34:55;98397.31;;;35.15;39.54
78741;BME280;68062;48.726;9.370;2023-06-22T11:37:21;98395.38;;;35.57;38.21
78741;BME280;68062;48.726;9.370;2023-06-22T11:39:48;98390.03;;;35.57;37.63
78741;BME280;68062;48.726;9.370;2023-06-22T11:42:14;98379.84;;;35.61;37.01
78741;BME280;68062;48.726;9.370;2023-06-22T11:44:43;98376.00;;;35.47;37.59
78741;BME280;68062;48.726;9.370;2023-06-22T11:47:11;98365.53;;;35.37;37.11
78741;BME280;68062;48.726;9.370;2023-06-22T11:49:38;98371.63;;;34.89;38.99
78741;BME280;68062;48.726;9.370;2023-06-22T11:52:06;98376.78;;;35.16;38.87
78741;BME280;68062;48.726;9.370;2023-06-22T11:54:32;98369.09;;;34.96;39.47
78741;BME280;68062;48.726;9.370;2023-06-22T11:56:59;98366.13;;;34.33;40.35
78741;BME280;68062;48.726;9.370;2023-06-22T11:59:26;98382.06;;;33.65;42.00
78741;BME280;68062;48.726;9.370;2023-06-22T12:01:53;98376.25;;;34.13;40.68
78741;BME280;68062;48.726;9.370;2023-06-22T12:04:23;98387.56;;;34.07;40.94
78741;BME280;68062;48.726;9.370;2023-06-22T12:06:50;98383.59;;;34.27;40.22
78741;BME280;68062;48.726;9.370;2023-06-22T12:09:16;98377.81;;;34.48;40.88
78741;BME280;68062;48.726;9.370;2023-06-22T12:11:43;98380.47;;;34.48;40.78
78741;BME280;68062;48.726;9.370;2023-06-22T12:14:10;98375.13;;;34.32;40.53
78741;BME280;68062;48.726;9.370;2023-06-22T12:16:37;98369.13;;;34.30;41.03
78741;BME280;68062;48.726;9.370;2023-06-22T12:19:04;98361.97;;;34.55;40.32
78741;BME280;68062;48.726;9.370;2023-06-22T12:21:32;98358.31;;;34.65;40.13
78741;BME280;68062;48.726;9.370;2023-06-22T12:23:59;98355.75;;;35.04;39.39
78741;BME280;68062;48.726;9.370;2023-06-22T12:26:26;98356.72;;;35.20;39.10
78741;BME280;68062;48.726;9.370;2023-06-22T12:28:52;98356.44;;;34.82;40.19
78741;BME280;68062;48.726;9.370;2023-06-22T12:31:19;98360.44;;;34.86;40.02
78741;BME280;68062;48.726;9.370;2023-06-22T12:33:46;98360.09;;;35.05;40.02
78741;BME280;68062;48.726;9.370;2023-06-22T12:36:13;98371.81;;;34.55;40.25
78741;BME280;68062;48.726;9.370;2023-06-22T12:38:41;98373.44;;;34.23;40.44
78741;BME280;68062;48.726;9.370;2023-06-22T12:41:07;98392.41;;;34.03;41.73
78741;BME280;68062;48.726;9.370;2023-06-22T12:43:34;98400.78;;;33.73;41.81
78741;BME280;68062;48.726;9.370;2023-06-22T12:46:01;98405.50;;;33.45;42.25
78741;BME280;68062;48.726;9.370;2023-06-22T12:48:28;98399.63;;;33.41;42.60
78741;BME280;68062;48.726;9.370;2023-06-22T12:50:55;98403.34;;;33.22;43.12
78741;BME280;68062;48.726;9.370;2023-06-22T12:53:22;98420.75;;;33.16;42.23
78741;BME280;68062;48.726;9.370;2023-06-22T12:55:50;98432.41;;;32.89;43.40
78741;BME280;68062;48.726;9.370;2023-06-22T12:58:17;98440.94;;;32.93;43.33
78741;BME280;68062;48.726;9.370;2023-06-22T13:00:43;98429.28;;;32.94;43.50